createdAt,value
2022-11-14T00:01:23.226Z,100493.03
2022-11-14T00:03:51.926Z,100463.09
2022-11-14T00:06:20.047Z,100488.28
2022-11-14T00:08:49.154Z,100498.00
2022-11-14T00:11:16.970Z,100495.50
2022-11-14T00:13:45.138Z,100452.72
2022-11-14T00:16:13.094Z,100490.38
2022-11-14T00:18:40.963Z,100457.06
2022-11-14T00:21:08.862Z,100479.22
2022-11-14T00:23:36.722Z,100476.94
2022-11-14T00:26:05.855Z,100466.19
2022-11-14T00:28:33.813Z,100464.47
2022-11-14T00:31:01.871Z,100482.56
2022-11-14T00:33:29.993Z,100450.41
2022-11-14T00:35:58.710Z,100441.00
2022-11-14T00:38:26.571Z,100474.00
2022-11-14T00:40:54.476Z,100452.72
2022-11-14T00:43:23.891Z,100452.03
2022-11-14T00:45:51.758Z,100435.78
2022-11-14T00:48:19.626Z,100447.91
2022-11-14T00:50:47.512Z,100435.69
2022-11-14T00:53:15.341Z,100425.31
2022-11-14T00:55:44.331Z,100444.06
2022-11-14T00:58:12.225Z,100450.63
2022-11-14T01:00:41.356Z,100480.06
2022-11-14T01:03:09.207Z,100472.59
2022-11-14T01:05:42.072Z,100472.59
2022-11-14T01:08:09.982Z,100469.56
2022-11-14T01:10:40.963Z,100441.81
2022-11-14T01:13:09.336Z,100434.44
2022-11-14T01:15:41.700Z,100454.91
2022-11-14T01:18:09.597Z,100469.13
2022-11-14T01:20:39.580Z,100434.78
2022-11-14T01:23:07.466Z,100458.19
2022-11-14T01:25:35.783Z,100422.47
2022-11-14T01:28:06.378Z,100454.09
2022-11-14T01:30:34.223Z,100439.53
2022-11-14T01:33:03.588Z,100424.84
2022-11-14T01:35:32.139Z,100422.50
2022-11-14T01:37:59.945Z,100445.78
2022-11-14T01:40:28.590Z,100418.13
2022-11-14T01:43:25.246Z,100429.44
2022-11-14T01:45:56.289Z,100388.59
2022-11-14T01:48:29.861Z,100386.25
2022-11-14T01:51:02.028Z,100408.47
2022-11-14T01:53:30.349Z,100391.44
2022-11-14T01:56:01.498Z,100404.81
2022-11-14T01:58:30.663Z,100401.31
2022-11-14T02:00:59.427Z,100401.81
2022-11-14T02:03:28.921Z,100393.97
2022-11-14T02:05:58.001Z,100406.03
2022-11-14T02:08:27.456Z,100392.31
2022-11-14T02:10:55.627Z,100397.94
2022-11-14T02:13:23.555Z,100401.97
2022-11-14T02:15:51.454Z,100397.28
2022-11-14T02:18:19.228Z,100365.97
2022-11-14T02:20:48.582Z,100381.47
2022-11-14T02:23:25.971Z,100367.56
2022-11-14T02:25:53.883Z,100369.38
2022-11-14T02:28:22.000Z,100389.25
2022-11-14T02:30:50.398Z,100356.66
2022-11-14T02:33:18.261Z,100383.09
2022-11-14T02:35:46.060Z,100380.41
2022-11-14T02:38:15.112Z,100341.59
2022-11-14T02:40:43.065Z,100381.78
2022-11-14T02:43:10.914Z,100362.72
2022-11-14T02:45:38.784Z,100318.91
2022-11-14T02:48:06.916Z,100347.34
2022-11-14T02:50:34.798Z,100357.38
2022-11-14T02:53:02.638Z,100365.25
2022-11-14T02:55:31.917Z,100356.22
2022-11-14T02:57:59.817Z,100348.22
2022-11-14T03:00:27.814Z,100350.34
2022-11-14T03:02:55.684Z,100333.47
2022-11-14T03:05:23.600Z,100352.94
2022-11-14T03:07:54.219Z,100347.25
2022-11-14T03:10:22.176Z,100346.63
2022-11-14T03:12:54.656Z,100316.75
2022-11-14T03:15:22.690Z,100342.38
2022-11-14T03:17:51.065Z,100334.31
2022-11-14T03:20:19.107Z,100337.66
2022-11-14T03:22:46.863Z,100311.41
2022-11-14T03:25:14.738Z,100331.13
2022-11-14T03:27:42.488Z,100311.06
2022-11-14T03:30:13.074Z,100307.72
2022-11-14T03:32:41.014Z,100316.53
2022-11-14T03:35:10.246Z,100322.41
2022-11-14T03:37:38.062Z,100328.06
2022-11-14T03:40:06.947Z,100295.28
2022-11-14T03:42:35.024Z,100326.09
2022-11-14T03:45:03.031Z,100333.66
2022-11-14T03:47:32.250Z,100302.69
2022-11-14T03:50:00.038Z,100321.25
2022-11-14T03:52:27.903Z,100327.22
2022-11-14T03:54:56.071Z,100324.69
2022-11-14T03:57:23.906Z,100296.09
2022-11-14T03:59:51.685Z,100327.16
2022-11-14T04:02:19.446Z,100308.47
2022-11-14T04:04:48.648Z,100328.69
2022-11-14T04:07:16.684Z,100307.00
2022-11-14T04:09:47.094Z,100311.91
2022-11-14T04:12:16.061Z,100312.75
2022-11-14T04:14:44.180Z,100318.09
2022-11-14T04:17:12.093Z,100284.44
2022-11-14T04:19:40.083Z,100323.09
2022-11-14T04:22:09.410Z,100311.59
2022-11-14T04:24:37.296Z,100283.81
2022-11-14T04:27:05.174Z,100319.44
2022-11-14T04:29:34.337Z,100277.59
2022-11-14T04:32:02.203Z,100310.22
2022-11-14T04:34:30.143Z,100292.50
2022-11-14T04:36:58.106Z,100288.81
2022-11-14T04:44:14.189Z,100308.34
2022-11-14T04:46:42.153Z,100270.56
2022-11-14T04:49:10.339Z,100288.44
2022-11-14T04:51:38.158Z,100317.38
2022-11-14T04:54:06.331Z,100286.41
2022-11-14T04:56:34.122Z,100315.50
2022-11-14T04:59:03.443Z,100298.25
2022-11-14T05:01:31.263Z,100311.78
2022-11-14T05:03:59.232Z,100289.63
2022-11-14T05:06:27.074Z,100301.31
2022-11-14T05:08:54.864Z,100287.09
2022-11-14T05:11:27.968Z,100292.59
2022-11-14T05:13:56.885Z,100302.59
2022-11-14T05:16:26.150Z,100304.38
2022-11-14T05:18:56.160Z,100293.19
2022-11-14T05:21:24.161Z,100298.22
2022-11-14T05:23:51.912Z,100300.28
2022-11-14T05:26:20.475Z,100290.31
2022-11-14T05:28:48.388Z,100286.47
2022-11-14T05:31:17.823Z,100289.16
2022-11-14T05:33:48.058Z,100262.09
2022-11-14T05:36:17.820Z,100283.84
2022-11-14T05:38:45.619Z,100272.91
2022-11-14T05:41:16.402Z,100303.38
2022-11-14T05:43:44.735Z,100289.91
2022-11-14T05:46:14.336Z,100277.97
2022-11-14T05:48:43.021Z,100301.41
2022-11-14T05:51:14.107Z,100305.25
2022-11-14T05:53:42.440Z,100267.84
2022-11-14T05:56:13.182Z,100289.84
2022-11-14T05:58:41.244Z,100301.25
2022-11-14T06:01:11.611Z,100307.94
2022-11-14T06:03:41.370Z,100300.13
2022-11-14T06:06:12.954Z,100272.56
2022-11-14T06:08:41.282Z,100279.38
2022-11-14T06:11:10.788Z,100284.66
2022-11-14T06:13:38.762Z,100298.84
2022-11-14T06:16:09.296Z,100319.84
2022-11-14T06:18:37.737Z,100302.91
2022-11-14T06:21:11.258Z,100293.47
2022-11-14T06:23:40.940Z,100300.81
2022-11-14T06:26:20.230Z,100287.28
2022-11-14T06:28:49.302Z,100303.91
2022-11-14T06:31:17.376Z,100305.34
2022-11-14T06:33:45.746Z,100280.44
2022-11-14T06:36:14.571Z,100314.72
2022-11-14T06:38:44.680Z,100313.59
2022-11-14T06:41:13.762Z,100317.78
2022-11-14T06:43:44.033Z,100295.41
2022-11-14T06:46:14.555Z,100291.31
2022-11-14T06:48:42.893Z,100268.75
2022-11-14T06:51:11.936Z,100253.38
2022-11-14T06:53:40.042Z,100259.63
2022-11-14T06:56:11.815Z,100251.44
2022-11-14T06:58:42.018Z,100238.69
2022-11-14T07:01:13.453Z,100285.41
2022-11-14T07:03:41.419Z,100288.69
2022-11-14T07:06:11.206Z,100255.72
2022-11-14T07:08:39.357Z,100256.34
2022-11-14T07:11:10.552Z,100285.75
2022-11-14T07:13:39.497Z,100287.16
2022-11-14T07:16:07.766Z,100285.09
2022-11-14T07:18:35.574Z,100263.84
2022-11-14T07:21:05.589Z,100274.97
2022-11-14T07:23:35.166Z,100251.34
2022-11-14T07:26:04.488Z,100293.69
2022-11-14T07:28:34.799Z,100304.94
2022-11-14T07:31:04.223Z,100303.69
2022-11-14T07:33:32.460Z,100299.13
2022-11-14T07:36:00.294Z,100285.16
2022-11-14T07:38:28.469Z,100291.38
2022-11-14T07:40:59.582Z,100323.22
2022-11-14T07:43:28.058Z,100308.94
2022-11-14T07:45:59.984Z,100281.19
2022-11-14T07:48:28.163Z,100293.41
2022-11-14T07:51:00.245Z,100288.66
2022-11-14T07:53:28.690Z,100272.31
2022-11-14T07:55:56.712Z,100282.56
2022-11-14T07:58:24.865Z,100283.34
2022-11-14T08:00:52.676Z,100281.31
2022-11-14T08:03:27.427Z,100303.88
2022-11-14T08:06:07.043Z,100266.50
2022-11-14T08:08:39.937Z,100257.13
2022-11-14T08:11:09.638Z,100287.59
2022-11-14T08:13:41.878Z,100262.38
2022-11-14T08:16:14.909Z,100295.91
2022-11-14T08:18:52.532Z,100308.41
2022-11-14T08:21:25.350Z,100275.03
2022-11-14T08:23:55.021Z,100302.00
2022-11-14T08:26:32.921Z,100266.19
2022-11-14T08:29:03.937Z,100305.44
2022-11-14T08:31:39.218Z,100279.31
2022-11-14T08:34:10.281Z,100304.66
2022-11-14T08:36:39.493Z,100263.09
2022-11-14T08:39:09.015Z,100256.13
2022-11-14T08:41:41.316Z,100304.44
2022-11-14T08:44:13.796Z,100278.84
2022-11-14T08:46:54.058Z,100281.94
2022-11-14T08:49:32.658Z,100284.50
2022-11-14T08:52:16.364Z,100269.25
2022-11-14T08:55:01.811Z,100314.44
2022-11-14T08:57:39.219Z,100318.19
2022-11-14T09:00:09.955Z,100325.06
2022-11-14T09:02:51.201Z,100321.78
2022-11-14T09:05:22.458Z,100331.72
2022-11-14T09:07:55.211Z,100297.34
2022-11-14T09:10:33.014Z,100337.56
2022-11-14T09:13:08.116Z,100311.06
2022-11-14T09:15:40.738Z,100324.88
2022-11-14T09:18:15.194Z,100268.69
2022-11-14T09:20:50.513Z,100329.28
2022-11-14T09:23:20.129Z,100269.50
2022-11-14T09:25:52.475Z,100267.41
2022-11-14T09:28:25.214Z,100310.22
2022-11-14T09:30:54.831Z,100292.72
2022-11-14T09:51:51.972Z,100262.03
2022-11-14T09:54:32.478Z,100290.38
2022-11-14T09:57:05.084Z,100282.47
2022-11-14T09:59:36.089Z,100285.34
2022-11-14T10:02:53.868Z,100277.84
2022-11-14T10:05:41.220Z,100266.97
2022-11-14T10:08:49.635Z,100249.94
2022-11-14T10:11:25.765Z,100220.41
2022-11-14T10:14:15.054Z,100244.94
2022-11-14T10:17:09.265Z,100260.38
2022-11-14T10:19:50.866Z,100216.84
2022-11-14T10:22:46.976Z,100233.84
2022-11-14T10:25:39.604Z,100218.41
2022-11-14T10:28:57.421Z,100195.53
2022-11-14T10:32:02.639Z,100207.13
2022-11-14T10:34:50.972Z,100209.06
2022-11-14T10:40:28.697Z,100240.53
2022-11-14T10:43:49.693Z,100216.94
2022-11-14T10:46:50.190Z,100236.66
2022-11-14T10:50:02.587Z,100229.56
2022-11-14T10:53:02.215Z,100224.47
2022-11-14T10:56:10.305Z,100183.19
2022-11-14T10:58:48.253Z,100172.03
2022-11-14T11:02:07.080Z,100178.47
2022-11-14T11:08:43.180Z,100136.72
2022-11-14T11:11:40.379Z,100148.66
2022-11-14T11:14:40.204Z,100186.03
2022-11-14T11:17:40.079Z,100129.38
2022-11-14T11:20:28.225Z,100140.03
2022-11-14T11:23:14.382Z,100163.81
2022-11-14T11:26:21.238Z,100127.69
2022-11-14T11:29:20.375Z,100166.69
2022-11-14T11:35:39.788Z,100161.94
2022-11-14T11:38:31.815Z,100152.16
2022-11-14T11:42:07.661Z,100101.50
2022-11-14T11:44:35.843Z,100144.59
2022-11-14T11:47:09.935Z,100097.72
2022-11-14T11:49:50.095Z,100136.31
2022-11-14T11:52:30.003Z,100084.22
2022-11-14T11:55:20.321Z,100133.69
2022-11-14T11:57:56.239Z,100133.34
2022-11-14T12:00:28.436Z,100108.59
2022-11-14T12:02:58.874Z,100129.19
2022-11-14T12:09:05.921Z,100094.97
2022-11-14T12:12:10.450Z,100138.78
2022-11-14T12:15:14.298Z,100136.28
2022-11-14T12:18:22.996Z,100106.56
2022-11-14T12:21:26.524Z,100088.75
2022-11-14T12:44:39.298Z,100100.53
2022-11-14T12:51:06.829Z,100115.59
2022-11-14T12:53:54.426Z,100080.66
2022-11-14T12:56:55.449Z,100104.44
2022-11-14T12:59:38.546Z,100087.97
2022-11-14T13:02:28.986Z,100080.63
2022-11-14T13:05:24.282Z,100055.69
2022-11-14T13:08:07.860Z,100066.09
2022-11-14T13:10:40.082Z,100060.88
2022-11-14T13:13:29.499Z,100058.38
2022-11-14T13:16:16.982Z,100067.41
2022-11-14T13:19:17.544Z,100051.91
2022-11-14T13:22:18.522Z,100083.84
2022-11-14T13:25:17.734Z,100060.19
2022-11-14T13:28:06.681Z,100087.53
2022-11-14T13:31:06.471Z,100081.38
2022-11-14T13:33:44.815Z,100054.88
2022-11-14T13:36:25.560Z,100050.00
2022-11-14T13:39:13.013Z,100053.09
2022-11-14T13:42:17.698Z,100066.81
2022-11-14T13:45:26.474Z,100052.16
2022-11-14T13:48:23.215Z,100065.63
2022-11-14T13:50:53.777Z,100047.31
2022-11-14T13:53:25.740Z,100054.16
2022-11-14T13:55:59.075Z,100042.06
2022-11-14T13:58:39.482Z,100054.28
2022-11-14T14:01:23.295Z,100030.03
2022-11-14T14:04:05.998Z,100052.50
2022-11-14T14:06:47.005Z,100044.44
2022-11-14T14:09:26.249Z,100033.22
2022-11-14T14:12:11.367Z,100045.63
2022-11-14T14:14:58.480Z,100009.09
2022-11-14T14:17:34.131Z,100023.28
2022-11-14T14:20:17.066Z,100012.16
2022-11-14T14:22:54.868Z,100038.88
2022-11-14T14:25:31.230Z,100044.09
2022-11-14T14:28:10.420Z,100038.31
2022-11-14T14:30:38.391Z,100037.97
2022-11-14T14:33:13.249Z,100030.59
2022-11-14T14:35:51.666Z,100020.66
2022-11-14T14:38:25.827Z,100017.47
2022-11-14T14:40:56.868Z,100030.63
2022-11-14T14:43:29.933Z,100030.72
2022-11-14T14:45:58.352Z,100004.06
2022-11-14T14:52:42.472Z,99991.69
2022-11-14T14:55:20.614Z,100028.09
2022-11-14T14:57:50.023Z,100028.34
2022-11-14T15:00:22.396Z,100023.72
2022-11-14T15:02:51.186Z,100020.06
2022-11-14T15:05:26.663Z,100010.38
2022-11-14T15:07:58.187Z,99987.50
2022-11-14T15:10:29.633Z,99998.88
2022-11-14T15:13:00.105Z,100006.31
2022-11-14T15:15:28.833Z,99978.78
2022-11-14T15:17:58.619Z,99989.06
2022-11-14T15:20:29.031Z,100010.13
2022-11-14T15:23:18.798Z,100005.41
2022-11-14T15:25:47.602Z,100000.28
2022-11-14T15:28:20.919Z,99994.06
2022-11-14T15:30:59.660Z,99993.69
2022-11-14T15:33:29.420Z,99997.94
2022-11-14T15:36:08.707Z,99990.47
2022-11-14T15:38:54.290Z,99991.06
2022-11-14T15:41:23.843Z,100002.31
2022-11-14T15:43:55.420Z,99984.91
2022-11-14T15:47:33.629Z,100001.44
2022-11-14T15:50:08.416Z,99998.84
2022-11-14T15:52:59.269Z,99998.75
2022-11-14T15:55:31.720Z,100001.56
2022-11-14T15:58:27.246Z,99996.13
2022-11-14T16:00:59.996Z,100003.97
2022-11-14T16:03:29.989Z,100001.94
2022-11-14T16:10:15.569Z,99983.88
2022-11-14T16:12:52.481Z,99980.41
2022-11-14T16:15:23.369Z,99990.69
2022-11-14T16:17:56.151Z,99990.44
2022-11-14T16:20:27.763Z,99983.63
2022-11-14T16:23:03.973Z,99996.97
2022-11-14T16:25:35.092Z,99981.28
2022-11-14T16:28:10.803Z,100019.84
2022-11-14T16:30:40.451Z,100013.19
2022-11-14T16:33:14.686Z,100004.91
2022-11-14T16:35:44.795Z,100012.38
2022-11-14T16:38:16.306Z,100018.66
2022-11-14T16:40:46.289Z,99954.19
2022-11-14T16:43:16.629Z,100018.16
2022-11-14T16:45:46.926Z,100022.66
2022-11-14T16:48:18.910Z,100003.84
2022-11-14T16:50:56.512Z,100002.91
2022-11-14T16:53:26.366Z,99995.13
2022-11-14T16:56:01.636Z,99986.94
2022-11-14T16:58:31.156Z,100016.06
2022-11-14T17:01:12.876Z,99984.81
2022-11-14T17:03:45.672Z,99977.13
2022-11-14T17:06:17.824Z,100012.97
2022-11-14T17:08:55.481Z,100002.34
2022-11-14T17:11:26.134Z,100006.47
2022-11-14T17:14:00.536Z,100018.09
2022-11-14T17:16:37.612Z,100030.28
2022-11-14T17:19:10.252Z,100001.03
2022-11-14T17:21:40.140Z,100030.09
2022-11-14T17:24:09.472Z,100007.75
2022-11-14T17:26:40.840Z,100049.16
2022-11-14T17:29:13.224Z,100049.41
2022-11-14T17:31:47.133Z,100028.94
2022-11-14T17:34:19.982Z,100052.38
2022-11-14T17:36:49.298Z,100043.38
2022-11-14T17:39:22.755Z,100043.38
2022-11-14T17:41:54.689Z,99997.94
2022-11-14T17:44:24.197Z,100048.69
2022-11-14T17:46:54.052Z,100006.47
2022-11-14T17:49:27.818Z,100013.94
2022-11-14T17:51:59.607Z,100034.75
2022-11-14T17:54:31.614Z,100046.69
2022-11-14T17:57:01.903Z,100041.13
2022-11-14T17:59:35.484Z,99999.59
2022-11-14T18:02:05.066Z,100045.59
2022-11-14T18:04:40.285Z,100039.22
2022-11-14T18:07:13.603Z,100022.78
2022-11-14T18:09:43.269Z,100020.88
2022-11-14T18:12:16.251Z,100016.88
2022-11-14T18:14:52.376Z,99991.34
2022-11-14T18:17:26.647Z,100045.13
2022-11-14T18:20:01.605Z,100032.25
2022-11-14T18:22:32.418Z,100035.16
2022-11-14T18:25:07.472Z,100016.19
2022-11-14T18:27:37.196Z,100036.41
2022-11-14T18:30:20.149Z,100048.78
2022-11-14T18:32:54.036Z,100049.84
2022-11-14T18:35:23.317Z,100052.38
2022-11-14T18:37:51.202Z,100027.84
2022-11-14T18:40:21.542Z,100051.91
2022-11-14T18:42:49.493Z,100042.28
2022-11-14T18:45:17.532Z,100030.81
2022-11-14T18:47:45.454Z,100061.25
2022-11-14T18:50:13.670Z,100054.00
2022-11-14T18:52:42.978Z,100064.06
2022-11-14T18:55:10.945Z,100055.56
2022-11-14T18:57:41.882Z,100035.66
2022-11-14T19:00:11.009Z,100034.47
2022-11-14T19:02:38.849Z,100054.47
2022-11-14T19:05:07.183Z,100057.63
2022-11-14T19:07:35.274Z,100048.88
2022-11-14T19:10:04.943Z,100044.44
2022-11-14T19:12:33.063Z,100064.59
2022-11-14T19:15:02.132Z,100059.66
2022-11-14T19:17:30.028Z,100050.59
2022-11-14T19:19:58.082Z,100059.38
2022-11-14T19:22:25.978Z,100064.00
2022-11-14T19:24:54.099Z,100062.34
2022-11-14T19:27:23.440Z,100072.84
2022-11-14T19:29:51.511Z,100067.91
2022-11-14T19:32:19.647Z,100035.41
2022-11-14T19:34:47.577Z,100060.66
2022-11-14T19:37:15.458Z,100046.38
2022-11-14T19:39:57.411Z,100070.28
2022-11-14T19:46:53.589Z,100023.66
2022-11-14T19:49:21.633Z,100041.31
2022-11-14T19:51:50.058Z,100071.47
2022-11-14T19:54:18.239Z,100036.97
2022-11-14T19:56:46.265Z,100053.16
2022-11-14T19:59:19.047Z,100029.16
2022-11-14T20:01:55.423Z,100056.56
2022-11-14T20:04:23.625Z,100025.13
2022-11-14T20:14:30.634Z,100007.16
2022-11-14T20:16:59.804Z,100010.34
2022-11-14T20:19:29.716Z,100022.91
2022-11-14T20:21:58.456Z,100060.66
2022-11-14T20:24:27.001Z,100064.31
2022-11-14T20:26:55.569Z,100012.25
2022-11-14T20:29:38.315Z,100064.22
2022-11-14T20:32:15.922Z,100043.25
2022-11-14T20:34:44.918Z,100048.13
2022-11-14T20:37:13.043Z,100068.59
2022-11-14T20:39:41.080Z,100050.13
2022-11-14T20:42:09.046Z,100043.25
2022-11-14T20:44:38.403Z,100052.16
2022-11-14T20:47:10.807Z,100045.16
2022-11-14T20:49:39.522Z,100065.50
2022-11-14T20:52:07.504Z,100062.81
2022-11-14T20:54:35.552Z,100051.66
2022-11-14T20:57:03.640Z,100056.25
2022-11-14T20:59:46.861Z,100061.22
2022-11-14T21:02:16.786Z,100042.38
2022-11-14T21:04:53.361Z,100057.56
2022-11-14T21:07:22.478Z,100054.09
2022-11-14T21:10:14.214Z,100044.75
2022-11-14T21:13:05.348Z,100064.31
2022-11-14T21:15:38.541Z,100035.97
2022-11-14T21:18:12.767Z,100066.13
2022-11-14T21:20:42.982Z,100045.16
2022-11-14T21:23:13.972Z,100029.41
2022-11-14T21:25:51.112Z,100060.34
2022-11-14T21:28:27.320Z,100037.25
2022-11-14T21:31:15.846Z,100076.13
2022-11-14T21:33:52.240Z,100076.56
2022-11-14T21:39:21.197Z,100020.47
2022-11-14T21:41:54.911Z,100077.56
2022-11-14T21:44:31.296Z,100072.16
2022-11-14T21:47:16.661Z,100047.44
2022-11-14T21:50:00.884Z,100037.22
2022-11-14T21:52:36.052Z,100075.81
2022-11-14T21:55:30.568Z,100061.59
2022-11-14T21:58:09.739Z,100078.13
2022-11-14T22:01:41.427Z,100066.31
2022-11-14T22:04:13.240Z,100081.56
2022-11-14T22:07:00.907Z,100049.78
2022-11-14T22:09:33.621Z,100081.44
2022-11-14T22:12:14.523Z,100052.28
2022-11-14T22:14:53.553Z,100052.00
2022-11-14T22:17:29.901Z,100079.91
2022-11-14T22:20:02.257Z,100074.38
2022-11-14T22:22:33.319Z,100037.50
2022-11-14T22:25:05.135Z,100073.63
2022-11-14T22:27:41.793Z,100051.34
2022-11-14T22:30:12.801Z,100065.53
2022-11-14T22:33:12.332Z,100087.53
2022-11-14T22:35:42.889Z,100061.66
2022-11-14T22:38:15.567Z,100043.06
2022-11-14T22:41:06.987Z,100044.66
2022-11-14T22:43:44.106Z,100070.63
2022-11-14T22:46:28.497Z,100091.59
2022-11-14T22:49:05.797Z,100034.66
2022-11-14T22:55:54.219Z,100080.13
2022-11-14T23:05:32.063Z,100079.06
2022-11-14T23:08:21.855Z,100112.09
2022-11-14T23:10:54.144Z,100076.44
2022-11-14T23:13:29.629Z,100072.78
2022-11-14T23:16:31.812Z,100051.28
2022-11-14T23:19:20.923Z,100090.50
2022-11-14T23:22:10.336Z,100102.81
2022-11-14T23:25:24.903Z,100104.56
2022-11-14T23:28:03.350Z,100090.97
2022-11-14T23:30:33.438Z,100048.19
2022-11-14T23:33:35.159Z,100071.69
2022-11-14T23:39:07.762Z,100087.53
2022-11-14T23:42:05.136Z,100102.47
2022-11-14T23:44:36.423Z,100097.94
2022-11-14T23:50:32.917Z,100050.78
2022-11-14T23:56:14.825Z,100026.34
2022-11-14T23:58:57.606Z,100054.13
